GW0172 Weather Reports


time (UTC)temp
C
wind
direction
speed
KPH
gust
KPH
rain 1hr
cm
rain 24hr
cm
rain mn
cm
humidity
%
barometer
mb
20220627213538 26 279 0.0 1.6 0.00 0.00 0.00 34 1023.2
20220627213037 26 4 3.2 3.2 0.00 0.00 0.00 34 1023.4
20220627212536 27 262 4.8 4.8 0.00 0.00 0.00 38 1023.4
20220627212036 27 327 0.0 4.8 0.00 0.00 0.00 34 1023.4
20220627211535 26 306 0.0 3.2 0.00 0.00 0.00 36 1023.4
20220627211035 26 308 3.2 6.4 0.00 0.00 0.00 34 1023.7
20220627210534 27 291 1.6 4.8 0.00 0.00 0.00 34 1023.6
20220627210033 27 278 0.0 1.6 0.00 0.00 0.00 35 1023.6
20220627205532 26 309 3.2 6.4 0.00 0.00 0.00 34 1023.7
20220627205031 27 270 0.0 4.8 0.00 0.00 0.00 35 1023.7
20220627204530 27 307 0.0 3.2 0.00 0.00 0.00 38 1023.8
20220627204030 27 262 3.2 4.8 0.00 0.00 0.00 32 1023.8
20220627203530 27 253 0.0 3.2 0.00 0.00 0.00 39 1023.8
20220627203029 27 209 0.0 1.6 0.00 0.00 0.00 38 1023.8
20220627202529 26 270 0.0 3.2 0.00 0.00 0.00 41 1024.0
20220627202027 26 177 0.0 4.8 0.00 0.00 0.00 38 1024.0
20220627201525 26 5 0.0 4.8 0.00 0.00 0.00 36 1023.8
20220627201023 26 289 0.0 6.4 0.00 0.00 0.00 43 1023.9
20220627200522 26 307 0.0 3.2 0.00 0.00 0.00 36 1023.8
20220627200021 26 270 3.2 3.2 0.00 0.00 0.00 41 1024.1
20220627195520 26 270 1.6 3.2 0.00 0.00 0.00 39 1024.1
20220627195020 26 337 0.0 8.0 0.00 0.00 0.00 36 1024.0
20220627194519 26 157 0.0 3.2 0.00 0.00 0.00 40 1024.3
20220627194018 26 279 1.6 3.2 0.00 0.00 0.00 42 1024.3
20220627193518 25 274 4.8 4.8 0.00 0.00 0.00 36 1024.3
20220627193017 25 286 0.0 4.8 0.00 0.00 0.00 36 1024.5
20220627192516 26 290 3.2 4.8 0.00 0.00 0.00 36 1024.3
20220627192015 26 281 3.2 3.2 0.00 0.00 0.00 36 1024.5
20220627191513 26 270 1.6 4.8 0.00 0.00 0.00 37 1024.4
20220627191012 25 257 3.2 4.8 0.00 0.00 0.00 39 1024.5
20220627190511 25 276 0.0 3.2 0.00 0.00 0.00 37 1024.6
20220627190010 25 5 3.2 4.8 0.00 0.00 0.00 38 1024.5
20220627185509 25 294 3.2 8.0 0.00 0.00 0.00 37 1024.6
20220627185009 25 350 3.2 4.8 0.00 0.00 0.00 38 1024.7
20220627184510 25 7 0.0 4.8 0.00 0.00 0.00 40 1024.7
20220627184009 25 356 3.2 4.8 0.00 0.00 0.00 40 1024.5
20220627183509 25 323 0.0 3.2 0.00 0.00 0.00 39 1024.8
20220627183008 25 285 4.8 6.4 0.00 0.00 0.00 41 1024.8
20220627182507 25 297 1.6 4.8 0.00 0.00 0.00 43 1024.7
20220627182006 25 273 4.8 6.4 0.00 0.00 0.00 41 1025.0
20220627181506 25 355 0.0 3.2 0.00 0.00 0.00 41 1025.2
20220627181005 25 7 0.0 4.8 0.00 0.00 0.00 43 1025.1
20220627180504 25 270 3.2 4.8 0.00 0.00 0.00 41 1025.0
20220627180004 24 270 0.0 1.6 0.00 0.00 0.00 39 1025.3
20220627175502 24 355 1.6 3.2 0.00 0.00 0.00 42 1025.2
20220627175001 24 15 1.6 4.8 0.00 0.00 0.00 44 1025.3
20220627174500 24 326 3.2 4.8 0.00 0.00 0.00 41 1025.2
20220627173959 24 254 3.2 3.2 0.00 0.00 0.00 43 1025.3
20220627173459 24 0 0.0 3.2 0.00 0.00 0.00 45 1025.1
20220627172959 23 286 0.0 8.0 0.00 0.00 0.00 43 1025.2
20220627172458 24 254 1.6 6.4 0.00 0.00 0.00 43 1025.5
20220627171956 23 333 0.0 6.4 0.00 0.00 0.00 45 1025.5
20220627171455 23 331 1.6 3.2 0.00 0.00 0.00 43 1025.5
20220627170954 23 353 0.0 0.0 0.00 0.00 0.00 44 1025.4
20220627170454 23 297 1.6 4.8 0.00 0.00 0.00 43 1025.6
20220627165953 23 11 0.0 4.8 0.00 0.00 0.00 45 1025.6
20220627165451 23 18 0.0 3.2 0.00 0.00 0.00 51 1025.8
20220627164950 23 342 1.6 4.8 0.00 0.00 0.00 45 1025.6
20220627164450 23 328 0.0 3.2 0.00 0.00 0.00 45 1025.7
20220627163949 23 281 0.0 6.4 0.00 0.00 0.00 45 1025.5
20220627163448 22 81 0.0 3.2 0.00 0.00 0.00 45 1025.5
20220627162947 22 288 8.0 9.7 0.00 0.00 0.00 46 1025.7
20220627162448 22 352 0.0 4.8 0.00 0.00 0.00 48 1025.7
20220627161947 22 270 0.0 3.2 0.00 0.00 0.00 46 1025.6
20220627161446 22 270 0.0 4.8 0.00 0.00 0.00 46 1025.6
20220627160945 22 349 0.0 3.2 0.00 0.00 0.00 48 1025.5
20220627160443 22 330 0.0 3.2 0.00 0.00 0.00 48 1025.7
20220627155942 22 270 3.2 4.8 0.00 0.00 0.00 47 1025.8
20220627155441 22 352 0.0 3.2 0.00 0.00 0.00 51 1025.7
20220627154940 22 294 0.0 4.8 0.00 0.00 0.00 47 1025.7
20220627154439 21 349 3.2 3.2 0.00 0.00 0.00 49 1025.8
20220627153939 21 255 3.2 4.8 0.00 0.00 0.00 48 1025.8
20220627153437 21 352 0.0 3.2 0.00 0.00 0.00 48 1025.8
20220627152936 21 285 1.6 6.4 0.00 0.00 0.00 51 1025.8
20220627152436 21 280 4.8 6.4 0.00 0.00 0.00 51 1026.0
20220627151936 21 315 3.2 3.2 0.00 0.00 0.00 48 1025.7
20220627151435 21 289 1.6 3.2 0.00 0.00 0.00 47 1025.7
20220627150934 21 330 4.8 4.8 0.00 0.00 0.00 52 1025.8
20220627150432 21 290 3.2 4.8 0.00 0.00 0.00 48 1025.9
20220627145931 21 356 3.2 3.2 0.00 0.00 0.00 53 1025.9
20220627145431 20 341 0.0 3.2 0.00 0.00 0.00 48 1025.8
20220627144930 20 318 4.8 4.8 0.00 0.00 0.00 49 1026.0
20220627144429 20 277 6.4 6.4 0.00 0.00 0.00 49 1026.0
20220627143928 20 322 3.2 3.2 0.00 0.00 0.00 52 1026.0
20220627143427 20 307 0.0 8.0 0.00 0.00 0.00 50 1025.9
20220627142926 20 249 0.0 0.0 0.00 0.00 0.00 57 1026.0
20220627142424 20 145 0.0 3.2 0.00 0.00 0.00 57 1026.0
20220627141924 19 300 0.0 3.2 0.00 0.00 0.00 56 1025.8
20220627141423 19 263 0.0 1.6 0.00 0.00 0.00 55 1025.9
20220627140923 19 173 0.0 1.6 0.00 0.00 0.00 57 1025.9
20220627140422 19 274 3.2 4.8 0.00 0.00 0.00 61 1026.0
20220627135920 18 106 0.0 0.0 0.00 0.00 0.00 61 1025.7
20220627135420 18 175 1.6 6.4 0.00 0.00 0.00 62 1025.9
20220627134920 18 270 0.0 3.2 0.00 0.00 0.00 62 1026.0
20220627134419 17 278 1.6 4.8 0.00 0.00 0.00 61 1025.9
20220627133918 17 285 0.0 3.2 0.00 0.00 0.00 62 1026.0
20220627133418 17 109 1.6 3.2 0.00 0.00 0.00 64 1025.9
20220627132918 17 277 0.0 4.8 0.00 0.00 0.00 67 1025.8
20220627132416 16 151 0.0 1.6 0.00 0.00 0.00 70 1025.7
20220627131915 16 180 0.0 0.0 0.00 0.00 0.00 72 1025.8
20220627131414 16 157 0.0 4.8 0.00 0.00 0.00 73 1025.8
20220627130914 16 203 0.0 3.2 0.00 0.00 0.00 74 1025.6
20220627130413 15 165 0.0 1.6 0.00 0.00 0.00 75 1025.8
20220627125912 15 175 1.6 3.2 0.00 0.00 0.00 77 1025.7
20220627125410 15 160 0.0 3.2 0.00 0.00 0.00 77 1025.7
20220627124909 15 170 3.2 3.2 0.00 0.00 0.00 77 1025.6
20220627124407 14 120 0.0 0.0 0.00 0.00 0.00 78 1025.6
20220627123907 14 157 0.0 0.0 0.00 0.00 0.00 80 1025.5
20220627123408 13 157 0.0 3.2 0.00 0.00 0.00 79 1025.5
20220627122907 13 123 0.0 0.0 0.00 0.00 0.00 80 1025.6
20220627122407 13 106 0.0 1.6 0.00 0.00 0.00 81 1025.6
20220627121906 12 90 0.0 0.0 0.00 0.00 0.00 82 1025.5
20220627121405 12 120 0.0 1.6 0.00 0.00 0.00 83 1025.5
20220627120905 12 99 0.0 0.0 0.00 0.00 0.00 84 1025.5
20220627120403 12 81 0.0 0.0 0.00 0.00 0.00 86 1025.4
20220627115902 11 120 0.0 1.6 0.00 0.00 0.00 87 1025.3
20220627115401 11 99 0.0 1.6 0.00 0.00 0.00 87 1025.6
20220627114901 11 111 1.6 1.6 0.00 0.00 0.00 87 1025.3
20220627114400 11 114 1.6 3.2 0.00 0.00 0.00 88 1025.5
20220627113900 11 114 0.0 3.2 0.00 0.00 0.00 88 1025.4
20220627113359 11 106 0.0 1.6 0.00 0.00 0.00 88 1025.6
20220627112859 11 106 0.0 1.6 0.00 0.00 0.00 87 1025.5
20220627112358 10 106 0.0 1.6 0.00 0.00 0.00 87 1025.5
20220627111857 10 99 0.0 0.0 0.00 0.00 0.00 87 1025.4
20220627111356 10 127 0.0 3.2 0.00 0.00 0.00 88 1025.4
20220627110856 10 151 0.0 3.2 0.00 0.00 0.00 88 1025.5
20220627110356 10 90 0.0 1.6 0.00 0.00 0.00 87 1025.3
20220627105855 10 114 0.0 1.6 0.00 0.00 0.00 88 1025.4
20220627105354 10 140 0.0 3.2 0.00 0.00 0.00 87 1025.2
20220627104854 10 151 1.6 3.2 0.00 0.00 0.00 87 1025.2
20220627104352 10 151 0.0 3.2 0.00 0.00 0.00 87 1025.1
20220627103851 10 120 0.0 3.2 0.00 0.00 0.00 87 1025.1
20220627103350 11 144 0.0 3.2 0.00 0.00 0.00 86 1025.1
20220627102850 11 152 3.2 3.2 0.00 0.00 0.00 85 1025.0
20220627102349 11 145 0.0 3.2 0.00 0.00 0.00 84 1025.1
20220627101847 11 114 1.6 1.6 0.00 0.00 0.00 85 1025.2
20220627101346 11 98 0.0 1.6 0.00 0.00 0.00 85 1025.0
20220627100846 11 114 0.0 1.6 0.00 0.00 0.00 84 1025.0
20220627100345 11 135 3.2 3.2 0.00 0.00 0.00 83 1025.0
20220627095845 11 120 0.0 3.2 0.00 0.00 0.00 81 1025.2
20220627095344 12 151 0.0 3.2 0.00 0.00 0.00 79 1025.0
20220627094843 12 99 0.0 0.0 0.00 0.00 0.00 76 1025.1
20220627094343 12 120 0.0 1.6 0.00 0.00 0.00 77 1024.8
20220627093841 12 81 0.0 0.0 0.00 0.00 0.00 74 1024.8
20220627093340 12 81 0.0 0.0 0.00 0.00 0.00 76 1024.8
20220627092839 12 81 0.0 0.0 0.00 0.00 0.00 75 1024.6
20220627092338 12 81 0.0 0.0 0.00 0.00 0.00 76 1024.7
20220627091837 12 81 0.0 0.0 0.00 0.00 0.00 77 1024.4
20220627091336 11 81 0.0 0.0 0.00 0.00 0.00 80 1024.5
20220627090834 11 90 0.0 0.0 0.00 0.00 0.00 81 1024.6
20220627090332 11 90 0.0 1.6 0.00 0.00 0.00 84 1024.6
20220627085832 11 82 0.0 1.6 0.00 0.00 0.00 84 1024.5
20220627085331 11 90 0.0 0.0 0.00 0.00 0.00 85 1024.5
20220627084831 11 90 0.0 0.0 0.00 0.00 0.00 83 1024.6
20220627084329 11 90 0.0 1.6 0.00 0.00 0.00 83 1024.3
20220627083828 11 114 0.0 0.0 0.00 0.00 0.00 83 1024.3
20220627083327 11 114 0.0 0.0 0.00 0.00 0.00 84 1024.3
20220627082825 11 90 0.0 1.6 0.00 0.00 0.00 82 1024.5
20220627082324 11 75 0.0 0.0 0.00 0.00 0.00 81 1024.3
20220627081824 11 99 0.0 1.6 0.00 0.00 0.00 81 1024.3
20220627081323 11 135 0.0 3.2 0.00 0.00 0.00 80 1024.4
20220627080823 12 126 0.0 3.2 0.00 0.00 0.00 79 1024.5
20220627080322 12 151 0.0 1.6 0.00 0.00 0.00 78 1024.4
20220627075821 12 145 0.0 3.2 0.00 0.00 0.00 77 1024.3
20220627075320 12 90 1.6 1.6 0.00 0.00 0.00 76 1024.5
20220627074819 12 114 0.0 0.0 0.00 0.00 0.00 76 1024.3
20220627074317 12 74 0.0 0.0 0.00 0.00 0.00 79 1024.4
20220627073817 12 74 1.6 1.6 0.00 0.00 0.00 78 1024.2
20220627073316 12 29 0.0 1.6 0.00 0.00 0.00 75 1024.3
20220627072816 12 90 0.0 0.0 0.00 0.00 0.00 76 1024.4
20220627072314 12 114 0.0 0.0 0.00 0.00 0.00 74 1024.3
20220627071813 12 90 0.0 0.0 0.00 0.00 0.00 76 1024.2
20220627071312 12 255 0.0 0.0 0.00 0.00 0.00 74 1024.3
20220627070811 12 255 0.0 0.0 0.00 0.00 0.00 73 1024.2
20220627070311 12 255 0.0 0.0 0.00 0.00 0.00 72 1024.3
20220627065810 13 255 0.0 0.0 0.00 0.00 0.00 70 1024.4
20220627065309 13 255 0.0 0.0 0.00 0.00 0.00 69 1024.5
20220627064808 13 255 0.0 1.6 0.00 0.00 0.00 70 1024.4
20220627064307 13 327 0.0 0.0 0.00 0.00 0.00 72 1024.5
20220627063807 13 327 0.0 0.0 0.00 0.00 0.00 71 1024.4
20220627063306 13 327 0.0 0.0 0.00 0.00 0.00 73 1024.4
20220627062805 13 327 0.0 0.0 0.00 0.00 0.00 71 1024.5
20220627062304 13 327 0.0 0.0 0.00 0.00 0.00 69 1024.3
20220627061801 13 327 0.0 0.0 0.00 0.00 0.00 70 1024.4
20220627061300 13 327 0.0 0.0 0.00 0.00 0.00 69 1024.2
20220627060759 13 327 0.0 0.0 0.00 0.00 0.00 70 1024.3
20220627060257 13 327 0.0 0.0 0.00 0.00 0.00 75 1024.4
20220627055756 13 327 0.0 0.0 0.00 0.00 0.00 75 1024.2
20220627055255 13 327 0.0 0.0 0.00 0.00 0.00 77 1024.2
20220627054754 12 327 0.0 0.0 0.00 0.00 0.00 74 1024.6
20220627054253 12 327 0.0 0.0 0.00 0.00 0.00 75 1024.4
20220627053752 13 327 0.0 0.0 0.00 0.00 0.00 75 1024.3
20220627053251 13 327 0.0 0.0 0.00 0.00 0.00 76 1024.2
20220627052750 13 327 0.0 0.0 0.00 0.00 0.00 76 1024.2
20220627052249 13 327 0.0 0.0 0.00 0.00 0.00 75 1024.2
20220627051749 13 327 0.0 0.0 0.00 0.00 0.00 74 1024.3
20220627051247 13 327 0.0 0.0 0.00 0.00 0.00 72 1024.1
20220627050746 13 327 0.0 0.0 0.00 0.00 0.00 73 1024.1
20220627050244 13 327 0.0 0.0 0.00 0.00 0.00 74 1024.2
20220627045743 13 327 0.0 0.0 0.00 0.00 0.00 71 1024.1
20220627045242 13 327 0.0 0.0 0.00 0.00 0.00 73 1024.2
20220627044741 13 327 0.0 0.0 0.00 0.00 0.00 69 1024.1
20220627044240 14 327 0.0 0.0 0.00 0.00 0.00 67 1024.1
20220627043740 14 327 0.0 0.0 0.00 0.00 0.00 67 1024.1
20220627043237 14 327 0.0 0.0 0.00 0.00 0.00 67 1023.9
20220627042736 14 327 0.0 0.0 0.00 0.00 0.00 65 1024.0
20220627042235 14 327 0.0 0.0 0.00 0.00 0.00 65 1024.0
20220627041734 15 327 0.0 0.0 0.00 0.00 0.00 64 1024.1
20220627041234 15 327 0.0 0.0 0.00 0.00 0.00 61 1023.9
20220627040734 15 327 0.0 0.0 0.00 0.00 0.00 60 1024.1
20220627040234 15 327 0.0 0.0 0.00 0.00 0.00 60 1023.9
20220627035734 15 327 0.0 0.0 0.00 0.00 0.00 62 1024.0
20220627035233 16 327 0.0 0.0 0.00 0.00 0.00 61 1024.1
20220627034732 16 327 0.0 0.0 0.00 0.00 0.00 64 1023.9
20220627034231 16 327 0.0 0.0 0.00 0.00 0.00 60 1023.9
20220627033731 16 327 0.0 0.0 0.00 0.00 0.00 55 1023.8
20220627033229 16 327 0.0 0.0 0.00 0.00 0.00 57 1023.9
20220627032728 16 327 0.0 0.0 0.00 0.00 0.00 52 1023.7
20220627032226 16 327 0.0 0.0 0.00 0.00 0.00 52 1023.7
20220627031725 17 327 0.0 0.0 0.00 0.00 0.00 52 1023.8
20220627031225 17 327 0.0 0.0 0.00 0.00 0.00 51 1023.7
20220627030724 17 327 0.0 0.0 0.00 0.00 0.00 51 1023.7
20220627030222 17 327 0.0 0.0 0.00 0.00 0.00 49 1023.6
20220627025721 17 327 0.0 3.2 0.00 0.00 0.00 50 1023.6
20220627025220 17 14 0.0 0.0 0.00 0.00 0.00 49 1023.5
20220627024720 17 14 0.0 0.0 0.00 0.00 0.00 48 1023.4
20220627024220 17 353 0.0 3.2 0.00 0.00 0.00 49 1023.3
20220627023720 18 355 0.0 3.2 0.00 0.00 0.00 49 1023.2
20220627023218 18 352 0.0 3.2 0.00 0.00 0.00 48 1023.2
20220627022717 18 0 0.0 0.0 0.00 0.00 0.00 49 1023.0
20220627022215 18 283 0.0 1.6 0.00 0.00 0.00 48 1023.0
20220627021713 18 345 0.0 3.2 0.00 0.00 0.00 48 1022.9
20220627021212 18 319 0.0 3.2 0.00 0.00 0.00 48 1022.8
20220627020711 18 66 0.0 3.2 0.00 0.00 0.00 47 1022.8
20220627020209 18 300 0.0 1.6 0.00 0.00 0.00 46 1022.8
20220627015708 19 8 0.0 3.2 0.00 0.00 0.00 45 1022.7
20220627015206 19 289 0.0 3.2 0.00 0.00 0.00 45 1022.4
20220627014706 19 4 0.0 4.8 0.00 0.00 0.00 45 1022.6
20220627014205 20 240 3.2 3.2 0.00 0.00 0.00 45 1022.5
20220627013704 20 306 0.0 3.2 0.00 0.00 0.00 43 1022.5
20220627013203 20 342 0.0 4.8 0.00 0.00 0.00 44 1022.4
20220627012702 20 354 1.6 4.8 0.00 0.00 0.00 44 1022.2
20220627012200 20 297 3.2 4.8 0.00 0.00 0.00 42 1022.3
20220627011659 20 270 1.6 4.8 0.00 0.00 0.00 41 1021.9
20220627011158 20 18 4.8 4.8 0.00 0.00 0.00 40 1022.2
20220627010657 20 297 3.2 8.0 0.00 0.00 0.00 40 1022.1
20220627010156 21 285 1.6 4.8 0.00 0.00 0.00 40 1021.9
20220627005655 21 342 1.6 4.8 0.00 0.00 0.00 40 1021.9
20220627005155 21 307 3.2 6.4 0.00 0.00 0.00 41 1021.8
20220627004654 21 279 6.4 11.3 0.00 0.00 0.00 39 1021.8
20220627004151 21 277 4.8 6.4 0.00 0.00 0.00 40 1021.9
20220627003649 21 324 3.2 8.0 0.00 0.00 0.00 40 1021.8
20220627003149 21 350 0.0 8.0 0.00 0.00 0.00 39 1021.8
20220627002649 21 33 3.2 6.4 0.00 0.00 0.00 40 1021.6
20220627002148 21 333 4.8 9.7 0.00 0.00 0.00 38 1021.7
20220627001648 21 307 3.2 8.0 0.00 0.00 0.00 39 1021.7
20220627001147 21 297 3.2 8.0 0.00 0.00 0.00 40 1021.6
20220627000646 21 282 3.2 9.7 0.00 0.00 0.00 39 1021.6
20220627000144 21 274 3.2 6.4 0.00 0.00 0.00 40 1021.7
20220626235642 21 282 11.3 14.5 0.00 0.00 0.00 38 1021.8
20220626235141 22 273 4.8 9.7 0.00 0.00 0.00 39 1021.4
20220626234640 22 297 0.0 6.4 0.00 0.00 0.00 41 1021.6
20220626234140 22 320 4.8 9.7 0.00 0.00 0.00 37 1021.7
20220626233639 22 292 4.8 8.0 0.00 0.00 0.00 38 1021.7
20220626233138 22 289 8.0 14.5 0.00 0.00 0.00 38 1021.5
20220626232637 22 298 6.4 12.9 0.00 0.00 0.00 36 1021.6
20220626232136 22 319 3.2 6.4 0.00 0.00 0.00 38 1021.6
20220626231634 22 282 4.8 11.3 0.00 0.00 0.00 37 1021.7
20220626231134 22 315 3.2 4.8 0.00 0.00 0.00 37 1021.5
20220626230633 22 317 6.4 11.3 0.00 0.00 0.00 38 1021.6
20220626230132 22 285 1.6 6.4 0.00 0.00 0.00 41 1021.7
20220626225631 22 328 4.8 8.0 0.00 0.00 0.00 38 1021.6
20220626225130 22 293 9.7 9.7 0.00 0.00 0.00 39 1021.6
20220626224629 22 320 4.8 11.3 0.00 0.00 0.00 40 1021.6
20220626224130 22 270 6.4 11.3 0.00 0.00 0.00 42 1021.7
20220626223628 22 0 3.2 8.0 0.00 0.00 0.00 40 1021.8
20220626223127 22 284 0.0 11.3 0.00 0.00 0.00 40 1021.7
20220626222627 21 0 1.6 8.0 0.00 0.00 0.00 42 1021.7
20220626222125 22 294 8.0 8.0 0.00 0.00 0.00 40 1022.1
20220626221624 22 250 4.8 12.9 0.00 0.00 0.00 40 1022.1
20220626221123 22 282 8.0 11.3 0.00 0.00 0.00 38 1021.9
20220626220622 22 314 6.4 8.0 0.00 0.00 0.00 43 1022.1
20220626220120 22 289 4.8 8.0 0.00 0.00 0.00 42 1021.9
20220626215619 22 286 4.8 8.0 0.00 0.00 0.00 45 1022.2
20220626215118 22 272 6.4 14.5 0.00 0.00 0.00 41 1022.2
20220626214618 22 281 3.2 11.3 0.00 0.00 0.00 40 1022.2
20220626214117 22 294 6.4 8.0 0.00 0.00 0.00 41 1022.3
20220626213617 22 3 4.8 8.0 0.00 0.00 0.00 42 1022.1